| time (UTC) | temp C | wind direction | speed KPH | gust KPH | rain 1hr cm | rain 24hr cm | rain mn cm | humidity % | barometer mb |
| 20260506163036 | 13 | 0 | 0.0 | 0.0 | 0.00 | 2.24 | 1.83 | 78 | 1009.9 |
| 20260506161532 | 13 | 0 | 0.0 | 1.6 | 0.00 | 2.24 | 1.83 | 78 | 1010.0 |
| 20260506160032 | 13 | 0 | 0.0 | 6.4 | 0.00 | 2.24 | 1.83 | 75 | 1010.0 |
| 20260506154532 | 14 | 0 | 1.6 | 8.0 | 0.00 | 2.24 | 1.83 | 72 | 1010.1 |
| 20260506153030 | 14 | 198 | 3.2 | 9.7 | 0.00 | 2.24 | 1.83 | 73 | 1010.1 |
| 20260506151531 | 15 | 0 | 1.6 | 8.0 | 0.00 | 2.24 | 1.83 | 76 | 1010.3 |
| 20260506150030 | 14 | 206 | 3.2 | 9.7 | 0.00 | 2.24 | 1.83 | 79 | 1010.4 |
| 20260506144534 | 13 | 214 | 0.0 | 4.8 | 0.00 | 2.24 | 1.83 | 83 | 1010.5 |
| 20260506143033 | 12 | 215 | 1.6 | 6.4 | 0.00 | 2.24 | 1.83 | 82 | 1010.9 |
| 20260506141533 | 12 | 0 | 0.0 | 4.8 | 0.00 | 2.24 | 1.83 | 84 | 1011.1 |
| 20260506140032 | 12 | 215 | 0.0 | 4.8 | 0.00 | 2.24 | 1.83 | 84 | 1011.2 |
| 20260506134532 | 12 | 215 | 0.0 | 4.8 | 0.00 | 2.24 | 1.83 | 86 | 1011.1 |
| 20260506133032 | 12 | 0 | 0.0 | 4.8 | 0.05 | 2.24 | 1.83 | 86 | 1011.2 |
| 20260506131544 | 12 | 215 | 0.0 | 4.8 | 0.05 | 2.24 | 1.83 | 84 | 1011.3 |
| 20260506130037 | 11 | 0 | 0.0 | 0.0 | 0.05 | 2.24 | 1.83 | 86 | 1011.5 |
| 20260506124529 | 12 | 0 | 0.0 | 3.2 | 0.03 | 2.21 | 1.80 | 83 | 1011.3 |
| 20260506123031 | 13 | 215 | 0.0 | 3.2 | 0.00 | 2.16 | 1.78 | 78 | 1011.1 |
| 20260506121530 | 13 | 0 | 0.0 | 6.4 | 0.00 | 2.16 | 1.78 | 73 | 1011.1 |
| 20260506120033 | 14 | 0 | 1.6 | 6.4 | 0.00 | 2.16 | 1.78 | 72 | 1011.0 |
| 20260506114534 | 13 | 215 | 0.0 | 4.8 | 0.00 | 2.16 | 1.78 | 72 | 1010.9 |
| 20260506113030 | 12 | 0 | 1.6 | 4.8 | 0.00 | 2.16 | 1.78 | 75 | 1011.0 |
| 20260506111531 | 13 | 215 | 1.6 | 6.4 | 0.00 | 2.16 | 1.78 | 75 | 1011.0 |
| 20260506110033 | 13 | 0 | 1.6 | 6.4 | 0.00 | 2.16 | 1.78 | 76 | 1011.3 |
| 20260506104533 | 12 | 215 | 1.6 | 6.4 | 0.00 | 2.16 | 1.78 | 77 | 1011.5 |
| 20260506103038 | 12 | 0 | 0.0 | 6.4 | 0.00 | 2.16 | 1.78 | 80 | 1011.6 |
| 20260506101543 | 13 | 215 | 0.0 | 9.7 | 0.00 | 2.16 | 1.78 | 82 | 1011.7 |
| 20260506100037 | 12 | 0 | 0.0 | 4.8 | 0.00 | 2.16 | 1.78 | 85 | 1011.4 |
| 20260506094533 | 11 | 0 | 0.0 | 6.4 | 0.00 | 2.16 | 1.78 | 85 | 1011.3 |
| 20260506093039 | 11 | 0 | 0.0 | 4.8 | 0.00 | 2.16 | 1.78 | 91 | 1011.0 |
| 20260506091534 | 10 | 213 | 1.6 | 9.7 | 0.00 | 2.16 | 1.75 | 88 | 1011.0 |
| 20260506090031 | 11 | 211 | 0.0 | 8.0 | 0.00 | 2.16 | 1.75 | 91 | 1010.8 |
| 20260506084529 | 11 | 211 | 1.6 | 11.3 | 0.00 | 2.44 | 1.75 | 94 | 1010.6 |
| 20260506083033 | 11 | 197 | 0.0 | 8.0 | 0.00 | 2.44 | 1.75 | 96 | 1010.2 |
| 20260506081541 | 10 | 196 | 3.2 | 11.3 | 0.00 | 2.44 | 1.75 | 97 | 1010.1 |
| 20260506073130 | 10 | 188 | 3.2 | 9.7 | 0.05 | 2.82 | 1.75 | 97 | 1009.6 |
| 20260506034558 | 9 | 0 | 0.0 | 0.0 | 0.38 | 3.20 | 1.24 | 97 | 1007.9 |
| 20260506033035 | 9 | 0 | 0.0 | 0.0 | 0.30 | 3.07 | 1.12 | 96 | 1007.9 |
| 20260506031531 | 9 | 0 | 0.0 | 0.0 | 0.25 | 2.97 | 1.02 | 96 | 1008.0 |
| 20260506030032 | 10 | 0 | 0.0 | 0.0 | 0.23 | 2.90 | 0.94 | 96 | 1008.0 |
| 20260506024532 | 10 | 0 | 0.0 | 0.0 | 0.18 | 3.00 | 0.84 | 96 | 1008.1 |
| 20260506023035 | 10 | 0 | 0.0 | 0.0 | 0.15 | 2.92 | 0.79 | 96 | 1008.2 |
| 20260506021534 | 10 | 0 | 0.0 | 0.0 | 0.13 | 2.90 | 0.74 | 96 | 1008.3 |
| 20260506020030 | 10 | 0 | 0.0 | 0.0 | 0.13 | 2.82 | 0.69 | 96 | 1008.3 |
| 20260506014532 | 10 | 0 | 0.0 | 0.0 | 0.08 | 3.05 | 0.64 | 96 | 1008.2 |
| 20260506013033 | 9 | 0 | 0.0 | 0.0 | 0.08 | 3.02 | 0.64 | 96 | 1008.3 |
| 20260506011533 | 10 | 0 | 0.0 | 0.0 | 0.08 | 3.00 | 0.61 | 96 | 1008.6 |
| 20260506010035 | 10 | 0 | 0.0 | 0.0 | 0.00 | 2.95 | 0.56 | 96 | 1008.9 |
| 20260506004556 | 10 | 0 | 0.0 | 0.0 | 0.00 | 3.15 | 0.56 | 96 | 1009.2 |
| 20260506003041 | 9 | 0 | 0.0 | 0.0 | 0.03 | 3.12 | 0.53 | 96 | 1009.1 |
| 20260506001530 | 9 | 0 | 0.0 | 0.0 | 0.15 | 3.12 | 0.53 | 96 | 1009.4 |
| 20260506000031 | 10 | 0 | 0.0 | 1.6 | 0.18 | 3.12 | 0.53 | 96 | 1009.5 |
| 20260505234549 | 10 | 0 | 0.0 | 0.0 | 0.25 | 3.40 | 0.53 | 96 | 1009.8 |
| 20260505233036 | 10 | 0 | 0.0 | 3.2 | 0.25 | 3.38 | 0.48 | 96 | 1010.0 |
| 20260505231532 | 10 | 0 | 0.0 | 3.2 | 0.28 | 3.25 | 0.36 | 96 | 1010.3 |
| 20260505230040 | 10 | 0 | 0.0 | 3.2 | 0.30 | 3.17 | 0.30 | 96 | 1010.4 |
| 20260505224536 | 10 | 184 | 0.0 | 3.2 | 0.30 | 3.33 | 0.28 | 96 | 1010.6 |
| 20260505223031 | 10 | 0 | 0.0 | 4.8 | 0.28 | 3.28 | 0.23 | 95 | 1010.6 |
| 20260505221530 | 10 | 0 | 0.0 | 1.6 | 0.10 | 3.12 | 0.08 | 95 | 1010.9 |
| 20260505220043 | 10 | 0 | 0.0 | 4.8 | 0.03 | 3.05 | 0.00 | 95 | 1011.2 |
| 20260505214537 | 10 | 0 | 0.0 | 1.6 | 0.00 | 3.20 | 3.00 | 95 | 1011.2 |
| 20260505213031 | 10 | 0 | 0.0 | 0.0 | 0.00 | 3.20 | 3.00 | 95 | 1011.4 |
| 20260505211530 | 10 | 0 | 0.0 | 3.2 | 0.00 | 3.20 | 3.00 | 95 | 1011.5 |
| 20260505210030 | 10 | 0 | 0.0 | 0.0 | 0.00 | 3.20 | 3.00 | 95 | 1011.7 |
| 20260505204535 | 10 | 0 | 0.0 | 0.0 | 0.00 | 3.35 | 3.00 | 95 | 1011.7 |
| 20260505203030 | 10 | 0 | 0.0 | 0.0 | 0.00 | 3.35 | 3.00 | 94 | 1011.7 |
| 20260505201531 | 10 | 0 | 1.6 | 6.4 | 0.00 | 3.35 | 3.00 | 94 | 1011.5 |
| 20260505200030 | 10 | 0 | 0.0 | 3.2 | 0.08 | 3.35 | 3.00 | 93 | 1011.2 |
| 20260505194537 | 10 | 0 | 0.0 | 3.2 | 0.30 | 3.38 | 3.00 | 93 | 1010.8 |
| 20260505193039 | 10 | 0 | 0.0 | 1.6 | 0.33 | 3.38 | 3.00 | 92 | 1010.6 |
| 20260505191547 | 11 | 0 | 0.0 | 6.4 | 0.33 | 3.38 | 3.00 | 91 | 1010.6 |
| 20260505190031 | 11 | 183 | 4.8 | 17.7 | 0.18 | 3.25 | 2.84 | 90 | 1010.8 |
| 20260505184533 | 12 | 196 | 4.8 | 12.9 | 0.00 | 3.17 | 2.67 | 88 | 1010.0 |
| 20260505183030 | 12 | 180 | 3.2 | 9.7 | 0.00 | 3.15 | 2.64 | 83 | 1009.3 |
| 20260505181531 | 13 | 0 | 1.6 | 9.7 | 0.00 | 3.15 | 2.64 | 77 | 1009.2 |
| 20260505180042 | 13 | 0 | 3.2 | 11.3 | 0.00 | 3.15 | 2.64 | 77 | 1009.2 |
| 20260505174539 | 13 | 186 | 0.0 | 4.8 | 0.00 | 3.15 | 2.64 | 77 | 1009.2 |
| 20260505173031 | 14 | 0 | 3.2 | 11.3 | 0.00 | 3.15 | 2.64 | 75 | 1009.2 |
| 20260505171534 | 15 | 188 | 3.2 | 9.7 | 0.00 | 3.15 | 2.64 | 83 | 1009.5 |
| 20260505170032 | 15 | 0 | 0.0 | 4.8 | 0.00 | 3.15 | 2.64 | 84 | 1009.5 |
| 20260505164530 | 15 | 188 | 0.0 | 9.7 | 0.00 | 3.28 | 2.64 | 86 | 1009.7 |